Time;durP1;ratioP1;P1;durP2;ratioP2;P2;SDS_P1;SDS_P2;PMS_P1;PMS_P2;Temp;Humidity;BMP_temperature;BMP_pressure;BME280_temperature;BME280_humidity;BME280_pressure;Samples;Min_cycle;Max_cycle;Signal;HPM_P1;HPM_P2
2023/03/20 00:00:34;;;;;;;89.70;59.43;;;;;;;;;;5092696;28;20286;-83
2023/03/20 00:03:00;;;;;;;102.03;63.90;;;;;;;;;;5091639;28;20179;-83
2023/03/20 00:05:27;;;;;;;90.90;59.10;;;;;;;;;;5093457;28;20586;-82
2023/03/20 00:07:54;;;;;;;89.03;58.17;;;;;;;;;;5086046;28;20187;-83
2023/03/20 00:10:22;;;;;;;86.90;56.47;;;;;;;;;;5090347;28;20193;-84
2023/03/20 00:12:48;;;;;;;89.23;58.67;;;;;;;;;;5088353;28;20238;-83
2023/03/20 00:15:20;;;;;;;95.53;59.13;;;;;;;;;;5092085;28;20191;-83
2023/03/20 00:17:46;;;;;;;92.87;57.87;;;;;;;;;;5086867;28;20203;-83
2023/03/20 00:20:14;;;;;;;91.30;59.27;;;;;;;;;;5104535;28;20215;-83
2023/03/20 00:22:40;;;;;;;91.80;57.53;;;;;;;;;;5083013;28;20172;-83
2023/03/20 00:25:07;;;;;;;91.40;56.40;;;;;;;;;;5092243;28;20595;-83
2023/03/20 00:27:33;;;;;;;92.43;58.10;;;;;;;;;;5081627;28;20220;-83
2023/03/20 00:29:59;;;;;;;92.13;59.77;;;;;;;;;;5079826;28;20176;-83
2023/03/20 00:32:25;;;;;;;99.13;59.93;;;;;;;;;;5080812;28;20168;-83
2023/03/20 00:34:53;;;;;;;100.70;61.47;;;;;;;;;;5093979;28;20643;-83
2023/03/20 00:37:20;;;;;;;98.63;62.00;;;;;;;;;;5087763;28;20222;-83
2023/03/20 00:39:46;;;;;;;95.97;64.17;;;;;;;;;;5109365;28;20295;-84
2023/03/20 00:42:19;;;;;;;94.83;63.83;;;;;;;;;;5085450;28;20240;-83
2023/03/20 00:44:58;;;;;;;104.77;63.97;;;;;;;;;;5080060;28;20255;-83
2023/03/20 00:47:25;;;;;;;99.20;58.53;;;;;;;;;;5110689;28;20673;-83
2023/03/20 00:49:53;;;;;;;103.37;61.77;;;;;;;;;;5086696;28;20184;-84
2023/03/20 00:52:20;;;;;;;102.17;61.37;;;;;;;;;;5093533;28;20187;-84
2023/03/20 00:54:46;;;;;;;91.87;57.37;;;;;;;;;;5091629;28;20185;-83
2023/03/20 00:57:14;;;;;;;92.83;58.00;;;;;;;;;;5091600;28;20250;-83
2023/03/20 00:59:53;;;;;;;93.63;59.40;;;;;;;;;;5075846;28;20187;-84
2023/03/20 01:02:20;;;;;;;87.33;56.03;;;;;;;;;;5084877;28;20187;-84
2023/03/20 01:04:47;;;;;;;93.70;58.97;;;;;;;;;;5079974;28;20181;-83
2023/03/20 01:07:15;;;;;;;90.80;58.70;;;;;;;;;;5080289;28;20222;-84
2023/03/20 01:09:41;;;;;;;89.03;53.63;;;;;;;;;;5092427;28;20208;-83
2023/03/20 01:12:10;;;;;;;89.20;57.70;;;;;;;;;;5086522;28;20172;-83
2023/03/20 01:14:36;;;;;;;85.53;55.20;;;;;;;;;;5084859;28;20551;-83
2023/03/20 01:17:02;;;;;;;84.77;56.10;;;;;;;;;;5082318;28;20985;-83
2023/03/20 01:19:28;;;;;;;81.77;54.77;;;;;;;;;;5106497;28;20561;-83
2023/03/20 01:21:55;;;;;;;83.40;54.53;;;;;;;;;;5088698;28;20217;-83
2023/03/20 01:24:21;;;;;;;81.37;52.80;;;;;;;;;;5090312;28;20191;-84
2023/03/20 01:26:48;;;;;;;83.77;54.10;;;;;;;;;;5081023;28;20267;-83
2023/03/20 01:29:24;;;;;;;81.90;53.10;;;;;;;;;;5087539;28;20188;-83
2023/03/20 01:31:51;;;;;;;73.27;48.03;;;;;;;;;;5084576;28;20663;-83
2023/03/20 01:34:18;;;;;;;76.50;50.33;;;;;;;;;;5093888;28;20207;-82
2023/03/20 01:36:54;;;;;;;77.03;48.03;;;;;;;;;;5086312;28;20180;-83
2023/03/20 01:39:20;;;;;;;74.77;48.40;;;;;;;;;;5092509;28;20172;-85
2023/03/20 01:41:47;;;;;;;75.23;50.40;;;;;;;;;;5101838;28;20191;-83
2023/03/20 01:44:21;;;;;;;71.27;47.77;;;;;;;;;;5106409;28;20271;-83
2023/03/20 01:46:47;;;;;;;77.00;50.20;;;;;;;;;;5082679;28;20211;-83
2023/03/20 01:49:20;;;;;;;70.80;47.87;;;;;;;;;;5089932;28;20653;-83
2023/03/20 01:51:49;;;;;;;68.43;47.37;;;;;;;;;;5089784;28;20637;-83
2023/03/20 01:54:15;;;;;;;73.53;49.67;;;;;;;;;;5075864;28;20552;-83
2023/03/20 01:56:54;;;;;;;72.20;47.23;;;;;;;;;;5088989;28;20164;-83
2023/03/20 01:59:32;;;;;;;68.70;46.40;;;;;;;;;;5079221;28;20192;-83
2023/03/20 02:01:59;;;;;;;73.73;48.47;;;;;;;;;;5078565;28;20180;-83
2023/03/20 02:04:30;;;;;;;69.07;45.87;;;;;;;;;;5090502;28;20187;-83
2023/03/20 02:06:56;;;;;;;71.07;45.97;;;;;;;;;;5091160;28;20184;-83
2023/03/20 02:09:22;;;;;;;66.07;45.53;;;;;;;;;;5090900;28;20245;-83
2023/03/20 02:11:49;;;;;;;66.23;45.43;;;;;;;;;;5086063;28;20506;-83
2023/03/20 02:14:15;;;;;;;66.53;44.80;;;;;;;;;;5085451;28;20187;-83
2023/03/20 02:16:41;;;;;;;60.67;43.53;;;;;;;;;;5101878;28;20273;-83
2023/03/20 02:19:14;;;;;;;59.63;41.37;;;;;;;;;;5096291;28;20183;-84
2023/03/20 02:22:04;;;;;;;57.53;43.20;;;;;;;;;;5077499;28;20567;-83
2023/03/20 02:24:43;;;;;;;65.70;44.30;;;;;;;;;;5046250;28;20979;-83
2023/03/20 02:27:14;;;;;;;65.00;42.60;;;;;;;;;;5047808;28;20590;-83
2023/03/20 02:29:59;;;;;;;60.50;40.77;;;;;;;;;;5025602;28;20189;-84
2023/03/20 02:32:25;;;;;;;61.50;41.57;;;;;;;;;;5030028;28;20185;-83
2023/03/20 02:34:53;;;;;;;61.73;40.53;;;;;;;;;;5050825;28;20198;-83
2023/03/20 02:37:31;;;;;;;63.00;40.40;;;;;;;;;;5039266;28;20205;-83
2023/03/20 02:40:09;;;;;;;65.30;43.60;;;;;;;;;;5026231;28;20663;-84
2023/03/20 02:43:01;;;;;;;61.03;41.33;;;;;;;;;;5022741;28;20190;-83
2023/03/20 02:45:48;;;;;;;60.83;40.93;;;;;;;;;;5030124;28;20185;-83
2023/03/20 02:48:23;;;;;;;57.37;40.27;;;;;;;;;;5045806;28;20726;-83
2023/03/20 02:50:51;;;;;;;58.20;40.83;;;;;;;;;;5049325;28;20177;-83
2023/03/20 02:53:43;;;;;;;61.53;42.17;;;;;;;;;;5040548;28;20277;-83
2023/03/20 02:56:17;;;;;;;64.23;42.63;;;;;;;;;;5026747;28;20790;-83
2023/03/20 02:59:02;;;;;;;62.60;41.97;;;;;;;;;;5030467;28;20259;-83
2023/03/20 03:01:28;;;;;;;63.90;42.33;;;;;;;;;;5059393;28;20240;-83
2023/03/20 03:03:56;;;;;;;57.43;40.27;;;;;;;;;;5091854;28;20181;-83
2023/03/20 03:06:28;;;;;;;61.73;41.77;;;;;;;;;;5090188;28;20255;-83
2023/03/20 03:08:58;;;;;;;53.93;38.70;;;;;;;;;;5112031;28;20207;-83
2023/03/20 03:11:25;;;;;;;58.00;40.73;;;;;;;;;;5079275;28;20194;-83
2023/03/20 03:13:53;;;;;;;60.33;41.13;;;;;;;;;;5081507;28;20308;-83
2023/03/20 03:16:23;;;;;;;63.17;42.30;;;;;;;;;;5108077;28;20183;-83
2023/03/20 03:18:53;;;;;;;60.20;41.87;;;;;;;;;;5089981;28;20220;-83
2023/03/20 03:21:19;;;;;;;58.17;41.17;;;;;;;;;;5091531;28;20697;-83
2023/03/20 03:23:47;;;;;;;57.73;40.47;;;;;;;;;;5091181;28;20225;-83
2023/03/20 03:26:41;;;;;;;58.33;39.60;;;;;;;;;;5080510;28;20202;-83
2023/03/20 03:29:12;;;;;;;55.43;40.20;;;;;;;;;;5103580;28;20319;-83
2023/03/20 03:31:38;;;;;;;63.40;41.40;;;;;;;;;;5093896;28;20172;-83
2023/03/20 03:34:04;;;;;;;61.87;43.03;;;;;;;;;;5074969;28;20199;-83
2023/03/20 03:36:53;;;;;;;60.13;40.67;;;;;;;;;;5098153;28;20580;-83
2023/03/20 03:39:20;;;;;;;60.47;39.67;;;;;;;;;;5087568;28;20264;-83
2023/03/20 03:41:51;;;;;;;61.37;41.07;;;;;;;;;;5094865;28;20263;-83
2023/03/20 03:44:31;;;;;;;59.37;41.77;;;;;;;;;;5090784;28;20653;-83
2023/03/20 03:47:04;;;;;;;61.03;41.20;;;;;;;;;;5086639;28;20219;-83
2023/03/20 03:49:33;;;;;;;59.30;41.50;;;;;;;;;;5082239;28;20220;-84
2023/03/20 03:52:02;;;;;;;58.93;41.73;;;;;;;;;;5094278;28;20181;-83
2023/03/20 03:54:48;;;;;;;61.03;42.43;;;;;;;;;;5109185;28;20212;-83
2023/03/20 03:57:17;;;;;;;63.37;44.27;;;;;;;;;;5075339;28;20220;-84
2023/03/20 03:59:45;;;;;;;58.30;42.70;;;;;;;;;;5093410;28;20179;-84
2023/03/20 04:02:12;;;;;;;65.63;42.87;;;;;;;;;;5085723;28;20175;-83
2023/03/20 04:04:39;;;;;;;59.53;42.43;;;;;;;;;;5078954;28;20232;-84
2023/03/20 04:07:07;;;;;;;64.47;43.93;;;;;;;;;;5089835;28;20668;-84
2023/03/20 04:12:40;;;;;;;66.63;44.80;;;;;;;;;;5101135;28;20220;-83
2023/03/20 04:15:06;;;;;;;65.07;43.93;;;;;;;;;;5087785;28;20783;-83
2023/03/20 04:17:33;;;;;;;63.10;43.70;;;;;;;;;;5084740;28;20208;-83
2023/03/20 04:19:59;;;;;;;65.70;44.80;;;;;;;;;;5081392;28;20228;-83
2023/03/20 04:22:25;;;;;;;61.70;43.20;;;;;;;;;;5086891;28;20204;-83
2023/03/20 04:24:51;;;;;;;65.77;44.87;;;;;;;;;;5099868;28;20245;-83
2023/03/20 04:27:17;;;;;;;60.90;43.00;;;;;;;;;;5083688;28;20195;-83
2023/03/20 04:29:43;;;;;;;65.53;45.33;;;;;;;;;;5081330;28;20188;-84
2023/03/20 04:32:10;;;;;;;67.83;44.93;;;;;;;;;;5085943;28;20244;-84
2023/03/20 04:34:36;;;;;;;61.83;43.30;;;;;;;;;;5093005;28;20191;-84
2023/03/20 04:37:04;;;;;;;62.20;44.57;;;;;;;;;;5090499;28;20215;-84
2023/03/20 04:39:30;;;;;;;69.53;45.63;;;;;;;;;;5097035;28;20180;-84
2023/03/20 04:41:57;;;;;;;60.63;41.70;;;;;;;;;;5091758;28;20634;-83
2023/03/20 04:44:24;;;;;;;65.53;45.47;;;;;;;;;;5082097;28;20617;-83
2023/03/20 04:46:50;;;;;;;63.50;44.97;;;;;;;;;;5085712;28;20222;-84
2023/03/20 04:49:17;;;;;;;64.93;44.60;;;;;;;;;;5081323;28;20215;-83
2023/03/20 04:51:44;;;;;;;69.67;46.73;;;;;;;;;;5082894;28;20260;-83
2023/03/20 04:54:10;;;;;;;67.97;46.30;;;;;;;;;;5088669;28;20182;-84
2023/03/20 04:56:36;;;;;;;66.40;45.13;;;;;;;;;;5085799;28;20551;-83
2023/03/20 04:59:02;;;;;;;61.93;44.33;;;;;;;;;;5079690;28;20993;-85
2023/03/20 05:01:28;;;;;;;63.33;45.73;;;;;;;;;;5103628;28;20669;-83
2023/03/20 05:03:59;;;;;;;68.30;46.73;;;;;;;;;;5080559;28;20820;-83
2023/03/20 05:06:26;;;;;;;65.53;45.30;;;;;;;;;;5108458;28;20172;-84
2023/03/20 05:08:52;;;;;;;68.57;46.33;;;;;;;;;;5090188;28;20216;-84
2023/03/20 05:11:18;;;;;;;70.87;46.80;;;;;;;;;;5089684;28;20285;-82
2023/03/20 05:13:44;;;;;;;63.87;43.93;;;;;;;;;;5089484;28;20184;-83
2023/03/20 05:16:10;;;;;;;64.40;44.77;;;;;;;;;;5076230;28;20211;-82
2023/03/20 05:18:37;;;;;;;67.27;44.33;;;;;;;;;;5085667;28;20700;-82
2023/03/20 05:21:03;;;;;;;64.17;46.20;;;;;;;;;;5078632;28;20807;-83
2023/03/20 05:23:30;;;;;;;70.30;48.03;;;;;;;;;;5097918;28;20634;-83
2023/03/20 05:25:56;;;;;;;69.33;48.97;;;;;;;;;;5083017;28;20266;-82
2023/03/20 05:28:22;;;;;;;66.30;45.73;;;;;;;;;;5104175;28;20233;-83
2023/03/20 05:30:48;;;;;;;65.67;44.90;;;;;;;;;;5109587;28;20160;-83
2023/03/20 05:33:15;;;;;;;65.03;44.27;;;;;;;;;;5086289;28;20207;-82
2023/03/20 05:35:41;;;;;;;65.37;45.03;;;;;;;;;;5084323;28;20187;-83
2023/03/20 05:38:07;;;;;;;68.70;45.47;;;;;;;;;;5092628;28;20304;-83
2023/03/20 05:40:33;;;;;;;69.60;44.40;;;;;;;;;;5086509;28;20179;-83
2023/03/20 05:42:59;;;;;;;68.20;45.57;;;;;;;;;;5089100;28;20172;-83
2023/03/20 05:45:27;;;;;;;68.77;45.13;;;;;;;;;;5086115;28;20713;-84
2023/03/20 05:47:53;;;;;;;67.63;42.90;;;;;;;;;;5083399;28;20192;-83
2023/03/20 05:50:19;;;;;;;64.73;46.10;;;;;;;;;;5080602;28;20593;-82
2023/03/20 05:52:49;;;;;;;64.77;45.20;;;;;;;;;;5093307;28;20191;-82
2023/03/20 05:55:15;;;;;;;66.03;44.27;;;;;;;;;;5091083;28;20215;-82
2023/03/20 05:57:41;;;;;;;63.33;42.83;;;;;;;;;;5088665;28;20277;-83
2023/03/20 06:00:09;;;;;;;69.40;43.33;;;;;;;;;;5082505;28;20630;-83
2023/03/20 06:02:35;;;;;;;64.77;42.53;;;;;;;;;;5087869;28;20179;-83
2023/03/20 06:05:01;;;;;;;64.67;43.00;;;;;;;;;;5093583;28;20183;-83
2023/03/20 06:07:27;;;;;;;62.63;41.80;;;;;;;;;;5093685;28;20183;-83
2023/03/20 06:09:54;;;;;;;60.70;40.07;;;;;;;;;;5092597;28;20164;-85
2023/03/20 06:12:20;;;;;;;58.03;40.73;;;;;;;;;;5109707;28;20173;-83
2023/03/20 06:14:46;;;;;;;56.23;39.20;;;;;;;;;;5090837;28;20180;-84
2023/03/20 06:17:12;;;;;;;58.77;39.10;;;;;;;;;;5093574;28;20298;-83
2023/03/20 06:19:38;;;;;;;58.07;40.00;;;;;;;;;;5085853;28;20693;-82
2023/03/20 06:22:04;;;;;;;63.40;42.67;;;;;;;;;;5084253;28;20195;-84
2023/03/20 06:24:30;;;;;;;58.77;40.67;;;;;;;;;;5087000;28;20180;-84
2023/03/20 06:26:56;;;;;;;56.70;39.00;;;;;;;;;;5082942;28;20190;-83
2023/03/20 06:29:22;;;;;;;55.20;38.30;;;;;;;;;;5077776;28;20630;-83
2023/03/20 06:31:48;;;;;;;55.40;37.17;;;;;;;;;;5085106;28;20267;-84
2023/03/20 06:34:14;;;;;;;56.23;36.73;;;;;;;;;;5072455;28;27141;-83
2023/03/20 06:36:40;;;;;;;53.07;36.63;;;;;;;;;;5084722;28;20175;-83
2023/03/20 06:39:07;;;;;;;55.10;37.03;;;;;;;;;;5084282;28;20643;-84
2023/03/20 06:41:33;;;;;;;57.93;36.57;;;;;;;;;;5088487;28;20283;-82
2023/03/20 06:44:00;;;;;;;52.17;35.17;;;;;;;;;;5079022;28;20216;-84
2023/03/20 06:46:26;;;;;;;54.33;35.93;;;;;;;;;;5081134;28;20666;-81
2023/03/20 06:48:53;;;;;;;54.87;35.33;;;;;;;;;;5076485;28;20193;-81
2023/03/20 06:51:19;;;;;;;51.17;34.20;;;;;;;;;;5073472;28;20228;-80
2023/03/20 06:53:45;;;;;;;58.47;34.87;;;;;;;;;;5077675;28;20271;-80
2023/03/20 06:56:11;;;;;;;50.50;32.47;;;;;;;;;;5083869;28;20212;-81
2023/03/20 06:58:37;;;;;;;48.37;34.17;;;;;;;;;;5087282;28;20215;-80
2023/03/20 07:01:10;;;;;;;48.40;33.87;;;;;;;;;;5089171;28;20222;-81
2023/03/20 07:03:36;;;;;;;54.50;34.23;;;;;;;;;;5086350;28;20221;-80
2023/03/20 07:06:02;;;;;;;55.13;35.17;;;;;;;;;;5086899;28;20659;-81
2023/03/20 07:08:28;;;;;;;50.90;33.73;;;;;;;;;;5082974;28;20207;-80
2023/03/20 07:10:55;;;;;;;44.67;32.80;;;;;;;;;;5087303;28;20645;-80
2023/03/20 07:13:20;;;;;;;58.27;33.37;;;;;;;;;;5085790;28;20604;-81
2023/03/20 07:15:47;;;;;;;51.80;34.13;;;;;;;;;;5080148;28;20216;-80
2023/03/20 07:18:13;;;;;;;46.03;34.07;;;;;;;;;;5091481;28;20704;-82
2023/03/20 07:20:39;;;;;;;50.40;35.87;;;;;;;;;;5077274;28;20216;-80
2023/03/20 07:23:05;;;;;;;64.17;40.50;;;;;;;;;;5069874;28;20184;-80
2023/03/20 07:25:31;;;;;;;56.93;39.00;;;;;;;;;;5071265;28;20189;-81
2023/03/20 07:27:58;;;;;;;62.67;39.80;;;;;;;;;;5056584;28;20182;-80
2023/03/20 07:30:24;;;;;;;60.13;37.83;;;;;;;;;;5056765;28;20200;-80
2023/03/20 07:32:50;;;;;;;57.83;36.23;;;;;;;;;;5064408;28;20208;-80
2023/03/20 07:35:16;;;;;;;50.00;34.90;;;;;;;;;;5084986;28;20646;-79
2023/03/20 07:37:43;;;;;;;52.17;35.17;;;;;;;;;;5059521;28;20210;-80
2023/03/20 07:40:09;;;;;;;51.93;36.63;;;;;;;;;;5066582;28;20174;-80
2023/03/20 07:42:35;;;;;;;54.20;37.33;;;;;;;;;;5070784;28;20264;-79
2023/03/20 07:45:02;;;;;;;61.07;37.37;;;;;;;;;;5065519;28;20197;-80
2023/03/20 07:47:28;;;;;;;56.93;39.53;;;;;;;;;;5068882;28;20197;-80
2023/03/20 07:49:54;;;;;;;55.60;37.83;;;;;;;;;;5082728;28;20185;-80
2023/03/20 07:52:20;;;;;;;54.17;36.10;;;;;;;;;;5087161;28;20227;-80
2023/03/20 07:54:46;;;;;;;49.37;36.00;;;;;;;;;;5066771;28;20216;-81
2023/03/20 07:57:12;;;;;;;49.90;34.53;;;;;;;;;;5069152;28;20217;-80
2023/03/20 07:59:38;;;;;;;49.20;33.67;;;;;;;;;;5083252;28;20220;-80
2023/03/20 08:02:04;;;;;;;50.47;32.77;;;;;;;;;;5068576;28;20722;-80
2023/03/20 08:04:31;;;;;;;47.23;33.00;;;;;;;;;;5068087;28;20272;-80
2023/03/20 08:06:56;;;;;;;53.23;32.80;;;;;;;;;;5069454;28;20177;-80
2023/03/20 08:09:23;;;;;;;45.47;31.43;;;;;;;;;;5062750;28;20188;-80
2023/03/20 08:11:50;;;;;;;44.67;31.37;;;;;;;;;;5062876;28;20188;-80
2023/03/20 08:14:16;;;;;;;47.40;32.43;;;;;;;;;;5082917;28;20238;-80
2023/03/20 08:16:42;;;;;;;43.37;31.20;;;;;;;;;;5056844;28;20217;-80
2023/03/20 08:19:09;;;;;;;39.47;28.33;;;;;;;;;;5072374;28;20209;-80
2023/03/20 08:21:35;;;;;;;45.50;28.63;;;;;;;;;;5110739;28;20708;-81
2023/03/20 08:24:01;;;;;;;43.50;29.27;;;;;;;;;;5111493;28;20627;-81
2023/03/20 08:26:27;;;;;;;39.33;28.33;;;;;;;;;;5106512;28;20180;-81
2023/03/20 08:28:53;;;;;;;44.93;29.80;;;;;;;;;;5106257;28;20179;-80
2023/03/20 08:31:19;;;;;;;46.97;30.13;;;;;;;;;;5112732;28;20209;-80
2023/03/20 08:33:46;;;;;;;40.97;28.83;;;;;;;;;;5099346;28;20184;-80
2023/03/20 08:36:14;;;;;;;39.17;28.17;;;;;;;;;;5086815;28;20244;-80
2023/03/20 08:38:40;;;;;;;42.87;27.80;;;;;;;;;;5093048;28;20206;-80
2023/03/20 08:41:06;;;;;;;42.87;28.40;;;;;;;;;;5104921;28;20178;-81
2023/03/20 08:43:33;;;;;;;40.13;28.00;;;;;;;;;;5110164;28;20190;-80
2023/03/20 08:45:59;;;;;;;48.17;29.73;;;;;;;;;;5085426;28;20176;-80
2023/03/20 08:48:25;;;;;;;41.47;28.63;;;;;;;;;;5099232;28;20257;-80
2023/03/20 08:50:51;;;;;;;44.57;28.77;;;;;;;;;;5078941;28;20275;-80
2023/03/20 08:53:17;;;;;;;46.13;29.83;;;;;;;;;;5078993;28;20226;-80
2023/03/20 08:55:50;;;;;;;48.73;30.17;;;;;;;;;;5111434;28;20176;-80
2023/03/20 08:58:16;;;;;;;50.17;29.37;;;;;;;;;;5109098;28;20196;-80
2023/03/20 09:00:43;;;;;;;46.13;29.40;;;;;;;;;;5107691;28;20674;-80
2023/03/20 09:03:16;;;;;;;44.60;28.30;;;;;;;;;;5080902;28;20233;-80
2023/03/20 09:05:46;;;;;;;36.23;26.53;;;;;;;;;;5089898;28;20590;-80
2023/03/20 09:08:13;;;;;;;37.60;26.30;;;;;;;;;;5108352;28;20207;-80
2023/03/20 09:10:42;;;;;;;34.83;22.93;;;;;;;;;;5091109;28;20183;-80
2023/03/20 09:13:08;;;;;;;35.17;23.20;;;;;;;;;;5092972;28;20213;-81
2023/03/20 09:15:35;;;;;;;33.73;23.83;;;;;;;;;;5084164;28;20653;-81
2023/03/20 09:18:01;;;;;;;30.40;23.07;;;;;;;;;;5081786;28;20204;-81
2023/03/20 09:20:27;;;;;;;29.53;23.23;;;;;;;;;;5076631;28;20326;-81
2023/03/20 09:22:53;;;;;;;31.83;22.63;;;;;;;;;;5106629;28;20203;-80
2023/03/20 09:25:19;;;;;;;29.97;22.37;;;;;;;;;;5086265;28;20230;-81
2023/03/20 09:27:45;;;;;;;33.47;21.03;;;;;;;;;;5109077;28;20578;-80
2023/03/20 09:30:12;;;;;;;35.50;21.40;;;;;;;;;;5101959;28;20184;-81
2023/03/20 09:32:38;;;;;;;27.30;20.60;;;;;;;;;;5081382;28;20188;-81
2023/03/20 09:35:05;;;;;;;29.03;20.90;;;;;;;;;;5088989;28;20786;-80
2023/03/20 09:37:31;;;;;;;31.87;22.03;;;;;;;;;;5089242;28;20268;-81
2023/03/20 09:39:57;;;;;;;28.20;20.60;;;;;;;;;;5088792;28;20176;-81
2023/03/20 09:42:26;;;;;;;27.10;20.33;;;;;;;;;;5087040;28;20191;-80
2023/03/20 09:44:52;;;;;;;29.07;19.07;;;;;;;;;;5107820;28;20313;-80
2023/03/20 09:47:36;;;;;;;27.73;21.67;;;;;;;;;;5091564;28;20270;-81
2023/03/20 09:50:08;;;;;;;27.13;19.83;;;;;;;;;;5109302;28;20179;-80
2023/03/20 09:52:37;;;;;;;29.20;20.13;;;;;;;;;;5104606;28;20722;-81
2023/03/20 09:55:06;;;;;;;28.10;20.33;;;;;;;;;;5092761;28;20630;-80
2023/03/20 09:57:39;;;;;;;29.50;21.10;;;;;;;;;;5092256;28;20215;-81
2023/03/20 10:00:17;;;;;;;30.13;22.07;;;;;;;;;;5109085;28;20218;-81
2023/03/20 10:02:46;;;;;;;34.83;23.07;;;;;;;;;;5085394;28;20175;-80
2023/03/20 10:05:18;;;;;;;32.63;22.77;;;;;;;;;;5107735;28;20184;-78
2023/03/20 10:07:45;;;;;;;35.83;23.90;;;;;;;;;;5108120;28;20254;-79
2023/03/20 10:10:14;;;;;;;36.07;24.87;;;;;;;;;;5093425;28;20172;-80
2023/03/20 10:12:40;;;;;;;33.33;24.70;;;;;;;;;;5091808;28;20179;-79
2023/03/20 10:15:16;;;;;;;34.80;26.53;;;;;;;;;;5093442;28;20187;-79
2023/03/20 10:18:10;;;;;;;37.23;27.93;;;;;;;;;;5092706;28;20211;-79
2023/03/20 10:20:46;;;;;;;37.73;27.77;;;;;;;;;;5109649;28;20331;-80
2023/03/20 10:23:12;;;;;;;40.80;29.60;;;;;;;;;;5090050;28;20184;-79
2023/03/20 10:25:42;;;;;;;42.33;29.53;;;;;;;;;;5108145;28;20586;-79
2023/03/20 10:28:12;;;;;;;50.80;33.07;;;;;;;;;;5076154;28;20225;-79
2023/03/20 10:30:49;;;;;;;48.23;32.00;;;;;;;;;;5076835;28;20616;-79
2023/03/20 10:33:25;;;;;;;47.53;32.50;;;;;;;;;;5100710;28;20191;-79
2023/03/20 10:36:07;;;;;;;50.60;33.33;;;;;;;;;;5090815;28;20175;-79
2023/03/20 10:38:44;;;;;;;49.70;33.17;;;;;;;;;;5091572;28;20215;-79
2023/03/20 10:41:14;;;;;;;46.93;33.20;;;;;;;;;;5097376;28;20190;-79
2023/03/20 10:43:41;;;;;;;48.97;32.90;;;;;;;;;;5089903;28;20266;-80
2023/03/20 10:46:09;;;;;;;48.23;32.93;;;;;;;;;;5105874;28;20232;-80
2023/03/20 10:48:35;;;;;;;46.57;31.93;;;;;;;;;;5080647;28;20555;-81
2023/03/20 10:51:02;;;;;;;48.67;33.83;;;;;;;;;;5100889;28;20186;-80
2023/03/20 10:53:31;;;;;;;51.63;34.20;;;;;;;;;;5095380;28;20184;-80
2023/03/20 10:56:00;;;;;;;46.60;33.90;;;;;;;;;;5093577;28;20236;-80
2023/03/20 10:58:27;;;;;;;52.83;34.90;;;;;;;;;;5114028;28;20215;-80
2023/03/20 11:00:55;;;;;;;45.03;32.80;;;;;;;;;;5087390;28;20184;-81
2023/03/20 11:03:28;;;;;;;45.83;33.33;;;;;;;;;;5099204;28;20237;-80
2023/03/20 11:05:58;;;;;;;45.50;33.03;;;;;;;;;;5080660;28;20632;-80
2023/03/20 11:08:29;;;;;;;43.47;31.13;;;;;;;;;;5109522;28;20186;-80
2023/03/20 11:10:59;;;;;;;40.77;30.83;;;;;;;;;;5109130;28;20233;-80
2023/03/20 11:13:31;;;;;;;43.63;30.87;;;;;;;;;;5095016;28;20192;-81
2023/03/20 11:16:07;;;;;;;46.27;31.77;;;;;;;;;;5090229;28;20213;-80
2023/03/20 11:18:34;;;;;;;43.70;31.93;;;;;;;;;;5090244;28;20208;-80
2023/03/20 11:21:01;;;;;;;41.43;31.63;;;;;;;;;;5089259;28;20685;-81
2023/03/20 11:23:36;;;;;;;44.40;31.13;;;;;;;;;;5092329;28;20177;-80
2023/03/20 11:26:06;;;;;;;41.47;31.13;;;;;;;;;;5093336;28;20181;-81
2023/03/20 11:28:37;;;;;;;42.60;29.90;;;;;;;;;;5114531;28;20368;-81
2023/03/20 11:31:14;;;;;;;37.87;29.77;;;;;;;;;;5091276;28;20184;-79
2023/03/20 11:33:42;;;;;;;41.37;30.67;;;;;;;;;;5083942;28;20184;-80
2023/03/20 11:36:39;;;;;;;43.53;30.90;;;;;;;;;;5084719;28;20274;-80
2023/03/20 11:39:07;;;;;;;44.00;32.23;;;;;;;;;;5109573;28;20291;-81
2023/03/20 11:41:33;;;;;;;40.53;31.60;;;;;;;;;;5090771;28;20192;-81
2023/03/20 11:44:00;;;;;;;40.37;31.37;;;;;;;;;;5101619;28;20266;-80
2023/03/20 11:46:26;;;;;;;41.40;30.87;;;;;;;;;;5093365;28;20180;-81
2023/03/20 11:49:06;;;;;;;39.27;30.10;;;;;;;;;;5107440;28;20870;-81
2023/03/20 11:51:34;;;;;;;38.47;30.03;;;;;;;;;;5103956;28;20184;-80
2023/03/20 11:54:02;;;;;;;42.33;31.13;;;;;;;;;;5085625;28;20192;-81
2023/03/20 11:56:29;;;;;;;45.07;30.13;;;;;;;;;;5107115;28;20233;-80
2023/03/20 11:58:55;;;;;;;41.57;30.80;;;;;;;;;;5092472;28;20211;-85
2023/03/20 12:01:21;;;;;;;37.50;29.10;;;;;;;;;;5092199;28;20691;-83
2023/03/20 12:04:02;;;;;;;41.77;30.17;;;;;;;;;;5100872;28;20184;-83
2023/03/20 12:06:37;;;;;;;40.70;30.57;;;;;;;;;;5103797;28;20207;-83
2023/03/20 12:09:05;;;;;;;39.83;28.87;;;;;;;;;;5086126;28;20185;-83
2023/03/20 12:11:38;;;;;;;40.90;31.10;;;;;;;;;;5090321;28;20188;-82
2023/03/20 12:14:06;;;;;;;39.57;29.33;;;;;;;;;;5111193;28;20175;-83
2023/03/20 12:16:34;;;;;;;35.47;27.43;;;;;;;;;;5090031;28;20172;-84
2023/03/20 12:19:02;;;;;;;35.87;26.47;;;;;;;;;;5088291;28;20253;-83
2023/03/20 12:21:47;;;;;;;41.27;27.23;;;;;;;;;;5086028;28;20647;-82
2023/03/20 12:24:29;;;;;;;36.83;26.33;;;;;;;;;;5081810;28;20176;-82
2023/03/20 12:26:55;;;;;;;39.07;29.23;;;;;;;;;;5110953;28;20201;-83
2023/03/20 12:29:24;;;;;;;34.67;26.30;;;;;;;;;;5093622;28;20664;-81
2023/03/20 12:31:53;;;;;;;34.37;26.80;;;;;;;;;;5091819;28;20176;-81
2023/03/20 12:34:21;;;;;;;32.17;25.20;;;;;;;;;;5099255;28;20187;-82
2023/03/20 12:36:48;;;;;;;29.80;23.07;;;;;;;;;;5099469;28;20169;-87
2023/03/20 12:39:16;;;;;;;29.13;21.00;;;;;;;;;;5107293;28;20256;-84
2023/03/20 12:42:02;;;;;;;32.53;21.40;;;;;;;;;;5079281;28;20208;-85
2023/03/20 12:44:29;;;;;;;28.53;19.90;;;;;;;;;;5086987;28;20173;-81
2023/03/20 12:46:58;;;;;;;21.90;17.53;;;;;;;;;;5092564;28;20233;-81
2023/03/20 12:49:45;;;;;;;28.27;18.23;;;;;;;;;;5087177;28;20196;-83
2023/03/20 12:52:14;;;;;;;22.27;18.50;;;;;;;;;;5088408;28;20191;-86
2023/03/20 12:55:11;;;;;;;25.07;17.23;;;;;;;;;;5090339;28;20192;-85
2023/03/20 12:57:38;;;;;;;25.23;17.77;;;;;;;;;;5015899;28;20291;-87
2023/03/20 13:00:10;;;;;;;25.07;19.77;;;;;;;;;;5011964;28;20182;-83
2023/03/20 13:02:47;;;;;;;26.97;20.80;;;;;;;;;;5040698;28;20641;-80
2023/03/20 13:05:13;;;;;;;32.90;22.47;;;;;;;;;;5024860;28;20175;-79
2023/03/20 13:07:48;;;;;;;29.33;23.77;;;;;;;;;;5008989;28;20669;-80
2023/03/20 13:10:21;;;;;;;39.13;28.70;;;;;;;;;;5010742;28;20232;-82
2023/03/20 13:12:52;;;;;;;37.40;29.57;;;;;;;;;;5010542;28;20190;-80
2023/03/20 13:15:37;;;;;;;34.97;28.00;;;;;;;;;;5011018;28;20202;-79
2023/03/20 13:18:10;;;;;;;39.57;31.13;;;;;;;;;;5027245;28;20256;-80
2023/03/20 13:20:50;;;;;;;38.17;31.20;;;;;;;;;;5022453;28;20222;-80
2023/03/20 13:23:20;;;;;;;39.40;31.40;;;;;;;;;;5028165;28;20212;-82
2023/03/20 13:26:16;;;;;;;42.83;31.47;;;;;;;;;;5010740;28;20201;-81
2023/03/20 13:29:00;;;;;;;41.93;32.73;;;;;;;;;;5005848;28;20195;-80
2023/03/20 13:31:40;;;;;;;38.87;31.47;;;;;;;;;;5027457;28;20255;-81
2023/03/20 13:34:24;;;;;;;42.87;31.50;;;;;;;;;;5052286;28;20585;-80
2023/03/20 13:36:53;;;;;;;44.67;30.33;;;;;;;;;;5083438;28;20184;-81
2023/03/20 13:39:20;;;;;;;40.47;31.13;;;;;;;;;;5103572;28;20222;-82
2023/03/20 13:41:47;;;;;;;38.03;30.30;;;;;;;;;;5076018;28;20184;-83
2023/03/20 13:44:15;;;;;;;38.10;29.33;;;;;;;;;;5097814;28;20178;-83
2023/03/20 13:46:41;;;;;;;36.73;28.33;;;;;;;;;;5092336;28;20195;-81
2023/03/20 13:49:13;;;;;;;34.87;27.73;;;;;;;;;;5087696;28;21425;-82
2023/03/20 13:51:43;;;;;;;34.90;26.87;;;;;;;;;;5079152;28;20215;-81
2023/03/20 13:54:28;;;;;;;35.90;28.23;;;;;;;;;;5091092;28;20641;-83
2023/03/20 13:56:57;;;;;;;33.90;26.10;;;;;;;;;;5086143;28;20187;-82
2023/03/20 13:59:35;;;;;;;35.27;26.13;;;;;;;;;;5106734;28;20211;-81
2023/03/20 14:02:04;;;;;;;29.90;25.87;;;;;;;;;;5105225;28;20183;-81
2023/03/20 14:04:30;;;;;;;33.43;26.50;;;;;;;;;;5085019;28;20543;-81
2023/03/20 14:06:57;;;;;;;32.77;25.07;;;;;;;;;;5088740;28;20184;-82
2023/03/20 14:09:23;;;;;;;31.80;25.43;;;;;;;;;;5089363;28;20188;-80
2023/03/20 14:11:52;;;;;;;31.77;28.03;;;;;;;;;;5090807;28;20693;-84
2023/03/20 14:14:24;;;;;;;36.37;25.43;;;;;;;;;;5084879;28;20271;-82
2023/03/20 14:17:00;;;;;;;29.47;24.70;;;;;;;;;;5077195;28;20181;-82
2023/03/20 14:19:26;;;;;;;32.37;25.00;;;;;;;;;;5076814;28;20566;-84
2023/03/20 14:21:56;;;;;;;33.27;26.37;;;;;;;;;;5085253;28;20184;-84
2023/03/20 14:24:23;;;;;;;32.27;27.80;;;;;;;;;;5084658;28;20271;-81
2023/03/20 14:26:52;;;;;;;36.33;29.07;;;;;;;;;;5106364;28;20185;-80
2023/03/20 14:29:18;;;;;;;37.20;28.63;;;;;;;;;;5096186;28;20228;-79
2023/03/20 14:31:47;;;;;;;34.97;30.10;;;;;;;;;;5101786;28;20182;-81